sensor_id;sensor_type;location;lat;lon;timestamp;P1;durP1;ratioP1;P2;durP2;ratioP2
35540;SDS011;21650;48.840;9.162;2023-03-31T00:00:42;3.00;;;1.37;;
35540;SDS011;21650;48.840;9.162;2023-03-31T00:03:08;4.20;;;1.60;;
35540;SDS011;21650;48.840;9.162;2023-03-31T00:05:46;6.33;;;1.77;;
35540;SDS011;21650;48.840;9.162;2023-03-31T00:08:12;3.13;;;1.27;;
35540;SDS011;21650;48.840;9.162;2023-03-31T00:10:42;8.30;;;1.67;;
35540;SDS011;21650;48.840;9.162;2023-03-31T00:13:10;2.93;;;1.33;;
35540;SDS011;21650;48.840;9.162;2023-03-31T00:15:36;5.83;;;1.70;;
35540;SDS011;21650;48.840;9.162;2023-03-31T00:18:02;4.63;;;1.53;;
35540;SDS011;21650;48.840;9.162;2023-03-31T00:20:28;4.03;;;1.63;;
35540;SDS011;21650;48.840;9.162;2023-03-31T00:22:53;3.97;;;1.80;;
35540;SDS011;21650;48.840;9.162;2023-03-31T00:25:21;4.87;;;1.63;;
35540;SDS011;21650;48.840;9.162;2023-03-31T00:27:47;2.53;;;1.60;;
35540;SDS011;21650;48.840;9.162;2023-03-31T00:30:16;6.30;;;1.87;;
35540;SDS011;21650;48.840;9.162;2023-03-31T00:32:42;5.73;;;1.47;;
35540;SDS011;21650;48.840;9.162;2023-03-31T00:35:08;6.63;;;1.77;;
35540;SDS011;21650;48.840;9.162;2023-03-31T00:37:34;2.93;;;1.30;;
35540;SDS011;21650;48.840;9.162;2023-03-31T00:40:00;4.27;;;1.83;;
35540;SDS011;21650;48.840;9.162;2023-03-31T00:42:26;7.20;;;1.83;;
35540;SDS011;21650;48.840;9.162;2023-03-31T00:47:43;4.27;;;1.50;;
35540;SDS011;21650;48.840;9.162;2023-03-31T00:50:18;6.27;;;1.40;;
35540;SDS011;21650;48.840;9.162;2023-03-31T00:52:46;8.57;;;2.07;;
35540;SDS011;21650;48.840;9.162;2023-03-31T00:55:16;5.87;;;1.50;;
35540;SDS011;21650;48.840;9.162;2023-03-31T00:57:48;5.10;;;1.70;;
35540;SDS011;21650;48.840;9.162;2023-03-31T01:00:17;3.70;;;1.70;;
35540;SDS011;21650;48.840;9.162;2023-03-31T01:02:45;6.47;;;1.87;;
35540;SDS011;21650;48.840;9.162;2023-03-31T01:05:17;5.70;;;1.60;;
35540;SDS011;21650;48.840;9.162;2023-03-31T01:07:47;3.70;;;1.53;;
35540;SDS011;21650;48.840;9.162;2023-03-31T01:10:14;7.43;;;1.93;;
35540;SDS011;21650;48.840;9.162;2023-03-31T01:12:41;5.70;;;2.10;;
35540;SDS011;21650;48.840;9.162;2023-03-31T01:15:10;5.37;;;1.70;;
35540;SDS011;21650;48.840;9.162;2023-03-31T01:17:37;3.63;;;1.57;;
35540;SDS011;21650;48.840;9.162;2023-03-31T01:31:42;5.73;;;2.17;;
35540;SDS011;21650;48.840;9.162;2023-03-31T01:37:30;7.47;;;2.03;;
35540;SDS011;21650;48.840;9.162;2023-03-31T01:45:25;5.03;;;1.90;;
35540;SDS011;21650;48.840;9.162;2023-03-31T01:48:10;5.43;;;1.60;;
35540;SDS011;21650;48.840;9.162;2023-03-31T01:56:07;4.17;;;1.37;;
35540;SDS011;21650;48.840;9.162;2023-03-31T02:01:56;4.53;;;1.33;;
35540;SDS011;21650;48.840;9.162;2023-03-31T02:04:27;4.43;;;1.27;;
35540;SDS011;21650;48.840;9.162;2023-03-31T02:07:17;5.67;;;1.07;;
35540;SDS011;21650;48.840;9.162;2023-03-31T02:09:52;3.57;;;1.40;;
35540;SDS011;21650;48.840;9.162;2023-03-31T02:12:23;4.60;;;1.53;;
35540;SDS011;21650;48.840;9.162;2023-03-31T02:14:51;2.70;;;1.00;;
35540;SDS011;21650;48.840;9.162;2023-03-31T02:17:20;8.23;;;1.43;;
35540;SDS011;21650;48.840;9.162;2023-03-31T02:19:54;4.70;;;1.23;;
35540;SDS011;21650;48.840;9.162;2023-03-31T02:22:23;10.20;;;1.30;;
35540;SDS011;21650;48.840;9.162;2023-03-31T02:24:51;4.83;;;1.20;;
35540;SDS011;21650;48.840;9.162;2023-03-31T02:27:22;6.10;;;1.53;;
35540;SDS011;21650;48.840;9.162;2023-03-31T02:29:52;6.00;;;1.40;;
35540;SDS011;21650;48.840;9.162;2023-03-31T02:34:50;4.70;;;1.30;;
35540;SDS011;21650;48.840;9.162;2023-03-31T02:37:16;4.07;;;1.40;;
35540;SDS011;21650;48.840;9.162;2023-03-31T02:39:42;4.83;;;1.47;;
35540;SDS011;21650;48.840;9.162;2023-03-31T02:42:11;4.20;;;1.73;;
35540;SDS011;21650;48.840;9.162;2023-03-31T02:44:37;4.50;;;1.60;;
35540;SDS011;21650;48.840;9.162;2023-03-31T02:47:04;4.27;;;1.83;;
35540;SDS011;21650;48.840;9.162;2023-03-31T02:49:32;5.20;;;1.47;;
35540;SDS011;21650;48.840;9.162;2023-03-31T03:01:03;6.80;;;2.07;;
35540;SDS011;21650;48.840;9.162;2023-03-31T03:04:02;8.70;;;2.00;;
35540;SDS011;21650;48.840;9.162;2023-03-31T03:06:53;4.77;;;1.70;;
35540;SDS011;21650;48.840;9.162;2023-03-31T03:09:42;6.13;;;2.13;;
35540;SDS011;21650;48.840;9.162;2023-03-31T03:12:24;4.17;;;1.60;;
35540;SDS011;21650;48.840;9.162;2023-03-31T03:15:10;4.83;;;1.60;;
35540;SDS011;21650;48.840;9.162;2023-03-31T03:17:56;5.40;;;2.03;;
35540;SDS011;21650;48.840;9.162;2023-03-31T03:20:22;9.77;;;1.70;;
35540;SDS011;21650;48.840;9.162;2023-03-31T03:22:48;7.87;;;2.40;;
35540;SDS011;21650;48.840;9.162;2023-03-31T03:25:14;5.13;;;1.97;;
35540;SDS011;21650;48.840;9.162;2023-03-31T03:27:44;6.77;;;2.20;;
35540;SDS011;21650;48.840;9.162;2023-03-31T03:30:11;7.07;;;2.97;;
35540;SDS011;21650;48.840;9.162;2023-03-31T03:32:37;8.43;;;2.50;;
35540;SDS011;21650;48.840;9.162;2023-03-31T03:35:03;5.47;;;2.33;;
35540;SDS011;21650;48.840;9.162;2023-03-31T03:37:30;7.37;;;2.60;;
35540;SDS011;21650;48.840;9.162;2023-03-31T03:39:56;5.63;;;2.03;;
35540;SDS011;21650;48.840;9.162;2023-03-31T03:42:21;6.27;;;2.30;;
35540;SDS011;21650;48.840;9.162;2023-03-31T03:44:47;6.27;;;2.10;;
35540;SDS011;21650;48.840;9.162;2023-03-31T03:47:13;5.67;;;1.80;;
35540;SDS011;21650;48.840;9.162;2023-03-31T03:49:38;7.40;;;2.77;;
35540;SDS011;21650;48.840;9.162;2023-03-31T03:52:04;5.07;;;2.13;;
35540;SDS011;21650;48.840;9.162;2023-03-31T03:54:30;10.80;;;2.73;;
35540;SDS011;21650;48.840;9.162;2023-03-31T03:56:56;5.63;;;1.97;;
35540;SDS011;21650;48.840;9.162;2023-03-31T03:59:22;5.53;;;2.57;;
35540;SDS011;21650;48.840;9.162;2023-03-31T04:01:47;5.43;;;2.20;;
35540;SDS011;21650;48.840;9.162;2023-03-31T04:04:13;5.00;;;1.83;;
35540;SDS011;21650;48.840;9.162;2023-03-31T04:06:39;7.43;;;2.10;;
35540;SDS011;21650;48.840;9.162;2023-03-31T04:09:04;3.80;;;2.03;;
35540;SDS011;21650;48.840;9.162;2023-03-31T04:11:30;6.50;;;2.33;;
35540;SDS011;21650;48.840;9.162;2023-03-31T04:13:56;6.97;;;2.03;;
35540;SDS011;21650;48.840;9.162;2023-03-31T04:16:21;3.87;;;2.47;;
35540;SDS011;21650;48.840;9.162;2023-03-31T04:18:49;4.97;;;2.30;;
35540;SDS011;21650;48.840;9.162;2023-03-31T04:21:20;6.30;;;2.10;;
35540;SDS011;21650;48.840;9.162;2023-03-31T04:23:47;7.87;;;2.40;;
35540;SDS011;21650;48.840;9.162;2023-03-31T04:26:16;3.70;;;2.33;;
35540;SDS011;21650;48.840;9.162;2023-03-31T04:28:42;4.77;;;2.43;;
35540;SDS011;21650;48.840;9.162;2023-03-31T04:31:11;5.90;;;2.53;;
35540;SDS011;21650;48.840;9.162;2023-03-31T04:33:49;8.13;;;2.97;;
35540;SDS011;21650;48.840;9.162;2023-03-31T04:36:15;5.37;;;2.53;;
35540;SDS011;21650;48.840;9.162;2023-03-31T04:38:41;7.60;;;2.67;;
35540;SDS011;21650;48.840;9.162;2023-03-31T04:41:11;4.47;;;2.47;;
35540;SDS011;21650;48.840;9.162;2023-03-31T04:43:39;6.53;;;2.93;;
35540;SDS011;21650;48.840;9.162;2023-03-31T04:46:05;9.73;;;3.43;;
35540;SDS011;21650;48.840;9.162;2023-03-31T04:50:58;8.97;;;2.60;;
35540;SDS011;21650;48.840;9.162;2023-03-31T04:53:24;7.03;;;2.97;;
35540;SDS011;21650;48.840;9.162;2023-03-31T04:55:50;6.13;;;3.13;;
35540;SDS011;21650;48.840;9.162;2023-03-31T04:58:16;6.10;;;3.73;;
35540;SDS011;21650;48.840;9.162;2023-03-31T05:00:42;8.07;;;2.97;;
35540;SDS011;21650;48.840;9.162;2023-03-31T05:03:07;6.83;;;2.63;;
35540;SDS011;21650;48.840;9.162;2023-03-31T05:05:33;8.60;;;3.13;;
35540;SDS011;21650;48.840;9.162;2023-03-31T05:07:59;7.57;;;3.07;;
35540;SDS011;21650;48.840;9.162;2023-03-31T05:10:25;7.90;;;2.90;;
35540;SDS011;21650;48.840;9.162;2023-03-31T05:12:50;6.00;;;2.60;;
35540;SDS011;21650;48.840;9.162;2023-03-31T05:15:16;8.10;;;3.07;;
35540;SDS011;21650;48.840;9.162;2023-03-31T05:17:42;5.23;;;3.10;;
35540;SDS011;21650;48.840;9.162;2023-03-31T05:20:08;6.57;;;3.10;;
35540;SDS011;21650;48.840;9.162;2023-03-31T05:22:35;6.00;;;2.83;;
35540;SDS011;21650;48.840;9.162;2023-03-31T05:25:02;7.70;;;3.87;;
35540;SDS011;21650;48.840;9.162;2023-03-31T05:27:29;8.33;;;4.23;;
35540;SDS011;21650;48.840;9.162;2023-03-31T05:29:55;11.50;;;3.73;;
35540;SDS011;21650;48.840;9.162;2023-03-31T05:32:20;9.43;;;3.63;;
35540;SDS011;21650;48.840;9.162;2023-03-31T05:34:46;11.00;;;4.03;;
35540;SDS011;21650;48.840;9.162;2023-03-31T05:37:12;9.60;;;3.90;;
35540;SDS011;21650;48.840;9.162;2023-03-31T05:39:37;5.57;;;3.67;;
35540;SDS011;21650;48.840;9.162;2023-03-31T05:42:03;4.87;;;3.17;;
35540;SDS011;21650;48.840;9.162;2023-03-31T05:44:29;9.00;;;4.40;;
35540;SDS011;21650;48.840;9.162;2023-03-31T05:46:55;7.73;;;4.13;;
35540;SDS011;21650;48.840;9.162;2023-03-31T05:49:21;11.10;;;5.07;;
35540;SDS011;21650;48.840;9.162;2023-03-31T05:51:46;6.43;;;3.90;;
35540;SDS011;21650;48.840;9.162;2023-03-31T05:54:12;7.10;;;3.80;;
35540;SDS011;21650;48.840;9.162;2023-03-31T05:56:38;7.97;;;4.60;;
35540;SDS011;21650;48.840;9.162;2023-03-31T05:59:03;7.00;;;3.87;;
35540;SDS011;21650;48.840;9.162;2023-03-31T06:01:29;10.63;;;4.93;;
35540;SDS011;21650;48.840;9.162;2023-03-31T06:03:54;8.87;;;4.83;;
35540;SDS011;21650;48.840;9.162;2023-03-31T06:06:20;7.57;;;4.23;;
35540;SDS011;21650;48.840;9.162;2023-03-31T06:08:46;10.97;;;4.70;;
35540;SDS011;21650;48.840;9.162;2023-03-31T06:11:14;14.97;;;5.83;;
35540;SDS011;21650;48.840;9.162;2023-03-31T06:13:43;9.87;;;5.07;;
35540;SDS011;21650;48.840;9.162;2023-03-31T06:16:10;13.00;;;4.97;;
35540;SDS011;21650;48.840;9.162;2023-03-31T06:18:36;9.97;;;4.57;;
35540;SDS011;21650;48.840;9.162;2023-03-31T06:21:03;17.20;;;6.10;;
35540;SDS011;21650;48.840;9.162;2023-03-31T06:23:29;10.63;;;5.67;;
35540;SDS011;21650;48.840;9.162;2023-03-31T06:25:58;10.90;;;5.77;;
35540;SDS011;21650;48.840;9.162;2023-03-31T06:28:28;13.53;;;5.07;;
35540;SDS011;21650;48.840;9.162;2023-03-31T06:31:05;13.47;;;4.90;;
35540;SDS011;21650;48.840;9.162;2023-03-31T06:33:32;15.57;;;5.13;;
35540;SDS011;21650;48.840;9.162;2023-03-31T06:35:58;12.13;;;4.97;;
35540;SDS011;21650;48.840;9.162;2023-03-31T06:38:25;10.03;;;5.00;;
35540;SDS011;21650;48.840;9.162;2023-03-31T06:40:51;9.87;;;5.83;;
35540;SDS011;21650;48.840;9.162;2023-03-31T06:43:17;12.47;;;5.90;;
35540;SDS011;21650;48.840;9.162;2023-03-31T06:45:43;14.67;;;6.17;;
35540;SDS011;21650;48.840;9.162;2023-03-31T06:48:08;10.67;;;5.27;;
35540;SDS011;21650;48.840;9.162;2023-03-31T06:50:36;14.53;;;5.90;;
35540;SDS011;21650;48.840;9.162;2023-03-31T06:53:03;13.67;;;5.70;;
35540;SDS011;21650;48.840;9.162;2023-03-31T06:55:28;8.87;;;5.03;;
35540;SDS011;21650;48.840;9.162;2023-03-31T06:57:54;7.53;;;4.50;;
35540;SDS011;21650;48.840;9.162;2023-03-31T07:00:20;11.97;;;5.17;;
35540;SDS011;21650;48.840;9.162;2023-03-31T07:02:46;14.77;;;5.13;;
35540;SDS011;21650;48.840;9.162;2023-03-31T07:05:11;11.07;;;4.93;;
35540;SDS011;21650;48.840;9.162;2023-03-31T07:07:37;13.23;;;5.60;;
35540;SDS011;21650;48.840;9.162;2023-03-31T07:10:02;7.97;;;5.17;;
35540;SDS011;21650;48.840;9.162;2023-03-31T07:12:31;13.40;;;5.67;;
35540;SDS011;21650;48.840;9.162;2023-03-31T07:14:56;7.10;;;4.60;;
35540;SDS011;21650;48.840;9.162;2023-03-31T07:17:22;8.17;;;4.50;;
35540;SDS011;21650;48.840;9.162;2023-03-31T07:19:49;6.57;;;4.30;;
35540;SDS011;21650;48.840;9.162;2023-03-31T07:22:14;13.17;;;5.00;;
35540;SDS011;21650;48.840;9.162;2023-03-31T07:24:40;6.30;;;3.83;;
35540;SDS011;21650;48.840;9.162;2023-03-31T07:27:06;5.97;;;3.93;;
35540;SDS011;21650;48.840;9.162;2023-03-31T07:29:32;10.07;;;3.93;;
35540;SDS011;21650;48.840;9.162;2023-03-31T07:31:57;5.17;;;3.03;;
35540;SDS011;21650;48.840;9.162;2023-03-31T07:34:23;5.90;;;3.00;;
35540;SDS011;21650;48.840;9.162;2023-03-31T07:36:48;7.80;;;2.90;;
35540;SDS011;21650;48.840;9.162;2023-03-31T07:39:14;5.80;;;2.87;;
35540;SDS011;21650;48.840;9.162;2023-03-31T07:41:39;2.60;;;1.80;;
35540;SDS011;21650;48.840;9.162;2023-03-31T07:44:05;5.03;;;2.30;;
35540;SDS011;21650;48.840;9.162;2023-03-31T07:46:31;3.33;;;2.20;;
35540;SDS011;21650;48.840;9.162;2023-03-31T07:48:56;2.67;;;1.57;;
35540;SDS011;21650;48.840;9.162;2023-03-31T07:51:23;3.50;;;1.70;;
35540;SDS011;21650;48.840;9.162;2023-03-31T07:53:50;2.50;;;1.87;;
35540;SDS011;21650;48.840;9.162;2023-03-31T07:56:17;3.90;;;1.47;;
35540;SDS011;21650;48.840;9.162;2023-03-31T07:58:45;4.33;;;1.63;;
35540;SDS011;21650;48.840;9.162;2023-03-31T08:01:14;2.33;;;1.17;;
35540;SDS011;21650;48.840;9.162;2023-03-31T08:03:41;3.40;;;1.27;;
35540;SDS011;21650;48.840;9.162;2023-03-31T08:06:07;3.70;;;1.70;;
35540;SDS011;21650;48.840;9.162;2023-03-31T08:08:32;3.73;;;1.10;;
35540;SDS011;21650;48.840;9.162;2023-03-31T08:10:58;2.43;;;1.20;;
35540;SDS011;21650;48.840;9.162;2023-03-31T08:13:24;2.83;;;1.30;;
35540;SDS011;21650;48.840;9.162;2023-03-31T08:15:50;3.00;;;1.27;;
35540;SDS011;21650;48.840;9.162;2023-03-31T08:18:15;2.30;;;0.90;;
35540;SDS011;21650;48.840;9.162;2023-03-31T08:20:41;3.80;;;1.10;;
35540;SDS011;21650;48.840;9.162;2023-03-31T08:23:06;3.30;;;1.00;;
35540;SDS011;21650;48.840;9.162;2023-03-31T08:25:35;2.90;;;1.43;;
35540;SDS011;21650;48.840;9.162;2023-03-31T08:28:01;1.37;;;1.00;;
35540;SDS011;21650;48.840;9.162;2023-03-31T08:30:27;2.83;;;1.20;;
35540;SDS011;21650;48.840;9.162;2023-03-31T08:32:52;3.27;;;1.07;;
35540;SDS011;21650;48.840;9.162;2023-03-31T08:35:18;3.10;;;1.20;;
35540;SDS011;21650;48.840;9.162;2023-03-31T08:37:43;6.67;;;1.23;;
35540;SDS011;21650;48.840;9.162;2023-03-31T08:40:19;2.10;;;0.90;;
35540;SDS011;21650;48.840;9.162;2023-03-31T08:42:52;2.60;;;1.40;;
35540;SDS011;21650;48.840;9.162;2023-03-31T08:45:30;3.37;;;1.40;;
35540;SDS011;21650;48.840;9.162;2023-03-31T08:51:05;2.10;;;1.07;;
35540;SDS011;21650;48.840;9.162;2023-03-31T08:53:38;2.13;;;1.00;;
35540;SDS011;21650;48.840;9.162;2023-03-31T08:56:15;2.30;;;0.80;;
35540;SDS011;21650;48.840;9.162;2023-03-31T08:58:45;2.13;;;0.87;;
35540;SDS011;21650;48.840;9.162;2023-03-31T09:01:20;2.50;;;0.80;;
35540;SDS011;21650;48.840;9.162;2023-03-31T09:04:14;4.40;;;1.33;;
35540;SDS011;21650;48.840;9.162;2023-03-31T09:18:42;4.10;;;1.07;;
35540;SDS011;21650;48.840;9.162;2023-03-31T09:24:14;2.93;;;0.80;;
35540;SDS011;21650;48.840;9.162;2023-03-31T09:26:57;7.10;;;1.00;;
35540;SDS011;21650;48.840;9.162;2023-03-31T09:29:29;3.03;;;1.10;;
35540;SDS011;21650;48.840;9.162;2023-03-31T09:32:00;4.27;;;1.63;;
35540;SDS011;21650;48.840;9.162;2023-03-31T09:34:31;5.93;;;1.30;;
35540;SDS011;21650;48.840;9.162;2023-03-31T09:36:58;4.10;;;0.80;;
35540;SDS011;21650;48.840;9.162;2023-03-31T09:39:24;3.67;;;1.10;;
35540;SDS011;21650;48.840;9.162;2023-03-31T09:41:50;2.73;;;0.80;;
35540;SDS011;21650;48.840;9.162;2023-03-31T09:44:29;8.73;;;1.70;;
35540;SDS011;21650;48.840;9.162;2023-03-31T09:47:10;4.03;;;1.20;;
35540;SDS011;21650;48.840;9.162;2023-03-31T09:49:39;4.17;;;1.43;;
35540;SDS011;21650;48.840;9.162;2023-03-31T09:54:45;3.13;;;1.00;;
35540;SDS011;21650;48.840;9.162;2023-03-31T09:57:38;4.53;;;1.00;;
35540;SDS011;21650;48.840;9.162;2023-03-31T10:00:05;9.13;;;1.67;;
35540;SDS011;21650;48.840;9.162;2023-03-31T10:02:37;6.20;;;1.30;;
35540;SDS011;21650;48.840;9.162;2023-03-31T10:05:17;7.67;;;1.43;;
35540;SDS011;21650;48.840;9.162;2023-03-31T10:07:51;5.80;;;1.60;;
35540;SDS011;21650;48.840;9.162;2023-03-31T10:10:41;3.00;;;1.43;;
35540;SDS011;21650;48.840;9.162;2023-03-31T10:13:10;4.97;;;1.00;;
35540;SDS011;21650;48.840;9.162;2023-03-31T10:15:44;5.70;;;1.27;;
35540;SDS011;21650;48.840;9.162;2023-03-31T10:18:14;3.67;;;1.30;;
35540;SDS011;21650;48.840;9.162;2023-03-31T10:20:42;4.00;;;0.73;;
35540;SDS011;21650;48.840;9.162;2023-03-31T10:25:54;3.43;;;1.30;;
35540;SDS011;21650;48.840;9.162;2023-03-31T10:28:20;5.37;;;1.67;;
35540;SDS011;21650;48.840;9.162;2023-03-31T10:30:56;4.87;;;1.00;;
35540;SDS011;21650;48.840;9.162;2023-03-31T10:33:27;5.07;;;1.37;;
35540;SDS011;21650;48.840;9.162;2023-03-31T10:36:29;3.17;;;1.23;;
35540;SDS011;21650;48.840;9.162;2023-03-31T10:38:50;4.50;;;1.10;;
35540;SDS011;21650;48.840;9.162;2023-03-31T10:41:17;2.33;;;1.30;;
35540;SDS011;21650;48.840;9.162;2023-03-31T10:43:49;4.47;;;1.10;;
35540;SDS011;21650;48.840;9.162;2023-03-31T10:46:17;6.07;;;1.23;;
35540;SDS011;21650;48.840;9.162;2023-03-31T10:48:43;6.03;;;1.53;;
35540;SDS011;21650;48.840;9.162;2023-03-31T10:51:19;6.30;;;1.80;;
35540;SDS011;21650;48.840;9.162;2023-03-31T10:53:50;2.87;;;1.30;;
35540;SDS011;21650;48.840;9.162;2023-03-31T10:59:21;4.87;;;1.57;;
35540;SDS011;21650;48.840;9.162;2023-03-31T11:04:51;3.27;;;1.13;;
35540;SDS011;21650;48.840;9.162;2023-03-31T11:13:21;13.80;;;1.57;;
35540;SDS011;21650;48.840;9.162;2023-03-31T11:16:07;5.07;;;1.43;;
35540;SDS011;21650;48.840;9.162;2023-03-31T11:21:46;7.33;;;1.20;;
35540;SDS011;21650;48.840;9.162;2023-03-31T11:27:40;3.10;;;0.93;;
35540;SDS011;21650;48.840;9.162;2023-03-31T11:33:14;2.50;;;0.60;;
35540;SDS011;21650;48.840;9.162;2023-03-31T11:39:12;0.77;;;0.40;;
35540;SDS011;21650;48.840;9.162;2023-03-31T11:44:03;0.30;;;0.30;;
35540;SDS011;21650;48.840;9.162;2023-03-31T11:46:38;1.77;;;0.60;;
35540;SDS011;21650;48.840;9.162;2023-03-31T11:49:32;1.43;;;0.30;;
35540;SDS011;21650;48.840;9.162;2023-03-31T11:57:29;0.83;;;0.50;;
35540;SDS011;21650;48.840;9.162;2023-03-31T12:00:03;1.43;;;0.40;;
35540;SDS011;21650;48.840;9.162;2023-03-31T12:05:04;1.67;;;0.43;;
35540;SDS011;21650;48.840;9.162;2023-03-31T12:07:43;1.37;;;0.30;;
35540;SDS011;21650;48.840;9.162;2023-03-31T12:10:37;0.97;;;0.37;;
35540;SDS011;21650;48.840;9.162;2023-03-31T12:13:19;1.13;;;0.37;;
35540;SDS011;21650;48.840;9.162;2023-03-31T12:16:04;1.30;;;0.60;;
35540;SDS011;21650;48.840;9.162;2023-03-31T12:18:37;0.97;;;0.37;;
35540;SDS011;21650;48.840;9.162;2023-03-31T12:21:07;0.87;;;0.53;;
35540;SDS011;21650;48.840;9.162;2023-03-31T12:23:36;2.23;;;0.30;;
35540;SDS011;21650;48.840;9.162;2023-03-31T12:28:35;1.43;;;0.30;;
35540;SDS011;21650;48.840;9.162;2023-03-31T12:31:04;2.07;;;0.57;;
35540;SDS011;21650;48.840;9.162;2023-03-31T12:33:37;3.27;;;0.40;;
35540;SDS011;21650;48.840;9.162;2023-03-31T12:36:17;2.20;;;0.60;;
35540;SDS011;21650;48.840;9.162;2023-03-31T12:44:56;3.30;;;0.63;;
35540;SDS011;21650;48.840;9.162;2023-03-31T12:50:25;3.90;;;0.73;;
35540;SDS011;21650;48.840;9.162;2023-03-31T12:53:08;3.63;;;0.60;;
35540;SDS011;21650;48.840;9.162;2023-03-31T12:55:48;2.93;;;0.70;;
35540;SDS011;21650;48.840;9.162;2023-03-31T13:03:44;2.00;;;0.47;;
35540;SDS011;21650;48.840;9.162;2023-03-31T13:08:56;4.77;;;1.00;;
35540;SDS011;21650;48.840;9.162;2023-03-31T13:16:41;8.47;;;1.33;;
35540;SDS011;21650;48.840;9.162;2023-03-31T13:19:09;26.13;;;3.47;;
35540;SDS011;21650;48.840;9.162;2023-03-31T13:21:51;4.97;;;1.00;;
35540;SDS011;21650;48.840;9.162;2023-03-31T13:24:20;2.93;;;0.77;;
35540;SDS011;21650;48.840;9.162;2023-03-31T13:26:47;4.07;;;0.87;;
35540;SDS011;21650;48.840;9.162;2023-03-31T13:34:24;1.70;;;0.70;;
35540;SDS011;21650;48.840;9.162;2023-03-31T13:37:29;2.43;;;0.67;;
35540;SDS011;21650;48.840;9.162;2023-03-31T13:39:49;5.40;;;0.60;;
35540;SDS011;21650;48.840;9.162;2023-03-31T13:43:30;2.23;;;0.40;;
35540;SDS011;21650;48.840;9.162;2023-03-31T13:56:50;1.90;;;0.30;;
35540;SDS011;21650;48.840;9.162;2023-03-31T13:59:28;1.90;;;0.30;;
35540;SDS011;21650;48.840;9.162;2023-03-31T14:07:37;0.27;;;0.20;;
35540;SDS011;21650;48.840;9.162;2023-03-31T14:12:50;3.03;;;0.40;;
35540;SDS011;21650;48.840;9.162;2023-03-31T14:15:17;4.20;;;0.40;;
35540;SDS011;21650;48.840;9.162;2023-03-31T14:17:45;1.07;;;0.20;;
35540;SDS011;21650;48.840;9.162;2023-03-31T14:25:45;0.97;;;0.30;;
35540;SDS011;21650;48.840;9.162;2023-03-31T14:28:31;0.60;;;0.40;;
35540;SDS011;21650;48.840;9.162;2023-03-31T14:36:20;3.27;;;0.70;;
35540;SDS011;21650;48.840;9.162;2023-03-31T14:39:11;1.53;;;0.30;;
35540;SDS011;21650;48.840;9.162;2023-03-31T14:41:40;2.33;;;0.50;;
35540;SDS011;21650;48.840;9.162;2023-03-31T14:44:09;2.20;;;0.47;;
35540;SDS011;21650;48.840;9.162;2023-03-31T14:46:39;1.93;;;1.07;;
35540;SDS011;21650;48.840;9.162;2023-03-31T14:49:11;2.80;;;0.50;;
35540;SDS011;21650;48.840;9.162;2023-03-31T14:51:59;0.50;;;0.20;;
35540;SDS011;21650;48.840;9.162;2023-03-31T14:54:33;0.73;;;0.30;;
35540;SDS011;21650;48.840;9.162;2023-03-31T14:57:02;0.87;;;0.30;;
35540;SDS011;21650;48.840;9.162;2023-03-31T14:59:29;2.53;;;0.50;;
35540;SDS011;21650;48.840;9.162;2023-03-31T15:01:58;0.67;;;0.40;;
35540;SDS011;21650;48.840;9.162;2023-03-31T15:04:28;1.70;;;0.33;;
35540;SDS011;21650;48.840;9.162;2023-03-31T15:06:54;0.93;;;0.30;;
35540;SDS011;21650;48.840;9.162;2023-03-31T15:09:27;4.20;;;0.40;;
35540;SDS011;21650;48.840;9.162;2023-03-31T15:11:56;1.77;;;0.37;;
35540;SDS011;21650;48.840;9.162;2023-03-31T15:14:27;1.23;;;0.50;;
35540;SDS011;21650;48.840;9.162;2023-03-31T15:16:55;0.40;;;0.40;;
35540;SDS011;21650;48.840;9.162;2023-03-31T15:19:24;3.67;;;1.07;;
35540;SDS011;21650;48.840;9.162;2023-03-31T15:22:13;1.20;;;0.30;;
35540;SDS011;21650;48.840;9.162;2023-03-31T15:24:40;4.53;;;0.30;;
35540;SDS011;21650;48.840;9.162;2023-03-31T15:27:07;1.97;;;0.37;;
35540;SDS011;21650;48.840;9.162;2023-03-31T15:29:37;2.70;;;0.40;;
35540;SDS011;21650;48.840;9.162;2023-03-31T15:32:12;1.90;;;0.87;;
35540;SDS011;21650;48.840;9.162;2023-03-31T15:34:42;2.60;;;0.50;;
35540;SDS011;21650;48.840;9.162;2023-03-31T15:37:10;1.73;;;0.43;;
35540;SDS011;21650;48.840;9.162;2023-03-31T15:39:36;1.73;;;0.63;;
35540;SDS011;21650;48.840;9.162;2023-03-31T15:42:03;1.63;;;0.50;;
35540;SDS011;21650;48.840;9.162;2023-03-31T15:44:38;2.10;;;0.87;;
35540;SDS011;21650;48.840;9.162;2023-03-31T15:47:18;3.93;;;0.70;;
35540;SDS011;21650;48.840;9.162;2023-03-31T15:52:22;4.30;;;1.43;;
35540;SDS011;21650;48.840;9.162;2023-03-31T15:54:58;9.60;;;5.97;;
35540;SDS011;21650;48.840;9.162;2023-03-31T15:57:31;3.83;;;1.40;;
35540;SDS011;21650;48.840;9.162;2023-03-31T15:59:59;10.10;;;6.17;;
35540;SDS011;21650;48.840;9.162;2023-03-31T16:02:46;10.90;;;5.43;;
35540;SDS011;21650;48.840;9.162;2023-03-31T16:05:54;4.17;;;3.30;;
35540;SDS011;21650;48.840;9.162;2023-03-31T16:08:12;4.43;;;2.53;;
35540;SDS011;21650;48.840;9.162;2023-03-31T16:10:41;24.70;;;20.23;;
35540;SDS011;21650;48.840;9.162;2023-03-31T16:13:08;11.77;;;8.80;;
35540;SDS011;21650;48.840;9.162;2023-03-31T16:15:37;11.93;;;9.67;;
35540;SDS011;21650;48.840;9.162;2023-03-31T16:18:07;11.80;;;9.10;;
35540;SDS011;21650;48.840;9.162;2023-03-31T16:20:38;4.33;;;1.70;;
35540;SDS011;21650;48.840;9.162;2023-03-31T16:23:20;3.17;;;1.57;;
35540;SDS011;21650;48.840;9.162;2023-03-31T16:25:49;5.80;;;3.27;;
35540;SDS011;21650;48.840;9.162;2023-03-31T16:28:16;5.93;;;4.00;;
35540;SDS011;21650;48.840;9.162;2023-03-31T16:30:44;5.53;;;2.97;;
35540;SDS011;21650;48.840;9.162;2023-03-31T16:33:11;5.50;;;3.00;;
35540;SDS011;21650;48.840;9.162;2023-03-31T16:35:38;6.10;;;3.63;;
35540;SDS011;21650;48.840;9.162;2023-03-31T16:38:06;2.77;;;0.93;;
35540;SDS011;21650;48.840;9.162;2023-03-31T16:40:35;2.00;;;1.03;;
35540;SDS011;21650;48.840;9.162;2023-03-31T16:45:50;1.83;;;0.70;;
35540;SDS011;21650;48.840;9.162;2023-03-31T16:48:19;2.20;;;1.00;;
35540;SDS011;21650;48.840;9.162;2023-03-31T16:50:47;0.90;;;0.50;;
35540;SDS011;21650;48.840;9.162;2023-03-31T16:53:15;1.67;;;0.60;;
35540;SDS011;21650;48.840;9.162;2023-03-31T16:55:42;2.43;;;0.67;;
35540;SDS011;21650;48.840;9.162;2023-03-31T16:58:08;0.53;;;0.37;;
35540;SDS011;21650;48.840;9.162;2023-03-31T17:00:34;0.77;;;0.47;;
35540;SDS011;21650;48.840;9.162;2023-03-31T17:03:01;2.87;;;0.47;;
35540;SDS011;21650;48.840;9.162;2023-03-31T17:05:27;2.70;;;0.60;;
35540;SDS011;21650;48.840;9.162;2023-03-31T17:07:55;0.40;;;0.40;;
35540;SDS011;21650;48.840;9.162;2023-03-31T17:10:22;2.87;;;0.50;;
35540;SDS011;21650;48.840;9.162;2023-03-31T17:12:48;2.70;;;0.50;;
35540;SDS011;21650;48.840;9.162;2023-03-31T17:15:13;2.67;;;1.10;;
35540;SDS011;21650;48.840;9.162;2023-03-31T17:17:39;0.77;;;0.47;;
35540;SDS011;21650;48.840;9.162;2023-03-31T17:20:05;1.03;;;0.53;;
35540;SDS011;21650;48.840;9.162;2023-03-31T17:22:32;2.70;;;0.50;;
35540;SDS011;21650;48.840;9.162;2023-03-31T17:24:57;1.90;;;0.50;;
35540;SDS011;21650;48.840;9.162;2023-03-31T17:27:24;1.10;;;0.40;;
35540;SDS011;21650;48.840;9.162;2023-03-31T17:29:51;1.97;;;0.40;;
35540;SDS011;21650;48.840;9.162;2023-03-31T17:32:17;1.37;;;0.70;;
35540;SDS011;21650;48.840;9.162;2023-03-31T17:34:43;2.53;;;0.63;;
35540;SDS011;21650;48.840;9.162;2023-03-31T17:37:09;0.50;;;0.30;;
35540;SDS011;21650;48.840;9.162;2023-03-31T17:39:34;5.00;;;0.53;;
35540;SDS011;21650;48.840;9.162;2023-03-31T17:42:00;1.97;;;0.43;;
35540;SDS011;21650;48.840;9.162;2023-03-31T17:44:27;2.10;;;0.33;;
35540;SDS011;21650;48.840;9.162;2023-03-31T17:46:53;1.30;;;0.43;;
35540;SDS011;21650;48.840;9.162;2023-03-31T17:49:19;23.93;;;12.80;;
35540;SDS011;21650;48.840;9.162;2023-03-31T17:51:45;7.17;;;3.63;;